createdAt,value
2018-04-19T00:01:13.134Z,25.20
2018-04-19T00:03:40.084Z,27.03
2018-04-19T00:06:06.926Z,26.37
2018-04-19T00:08:33.633Z,25.40
2018-04-19T00:11:01.006Z,27.10
2018-04-19T00:13:28.068Z,27.10
2018-04-19T00:15:54.807Z,27.67
2018-04-19T00:18:21.753Z,27.37
2018-04-19T00:20:48.425Z,28.13
2018-04-19T00:23:16.050Z,28.07
2018-04-19T00:25:42.741Z,28.87
2018-04-19T00:28:09.633Z,27.60
2018-04-19T00:30:36.578Z,28.43
2018-04-19T00:33:03.314Z,24.77
2018-04-19T00:35:29.997Z,27.30
2018-04-19T00:37:56.900Z,28.07
2018-04-19T00:40:23.573Z,29.73
2018-04-19T00:42:50.380Z,27.80
2018-04-19T00:45:17.222Z,28.10
2018-04-19T00:47:43.959Z,25.83
2018-04-19T00:50:10.908Z,26.33
2018-04-19T00:55:42.173Z,28.73
2018-04-19T00:58:08.880Z,27.37
2018-04-19T01:00:36.375Z,26.17
2018-04-19T01:03:03.222Z,25.70
2018-04-19T01:05:30.055Z,25.80
2018-04-19T01:07:56.791Z,29.13
2018-04-19T01:10:23.596Z,28.37
2018-04-19T01:12:50.295Z,27.57
2018-04-19T01:15:17.836Z,29.23
2018-04-19T01:17:44.676Z,30.20
2018-04-19T01:20:11.731Z,31.67
2018-04-19T01:22:38.419Z,29.53
2018-04-19T01:25:05.099Z,30.57
2018-04-19T01:27:31.947Z,32.80
2018-04-19T01:29:58.787Z,31.67
2018-04-19T01:32:25.629Z,31.57
2018-04-19T01:34:52.572Z,34.00
2018-04-19T01:37:19.414Z,32.27
2018-04-19T01:39:46.359Z,31.30
2018-04-19T01:42:13.302Z,29.50
2018-04-19T01:44:40.152Z,31.33
2018-04-19T01:47:06.882Z,29.40
2018-04-19T01:49:33.729Z,30.70
2018-04-19T01:52:00.564Z,28.53
2018-04-19T01:54:27.721Z,31.97
2018-04-19T01:56:54.460Z,31.87
2018-04-19T01:59:21.114Z,29.50
2018-04-19T02:01:48.040Z,30.20
2018-04-19T02:04:14.886Z,33.93
2018-04-19T02:06:41.626Z,31.67
2018-04-19T02:09:08.673Z,31.90
2018-04-19T02:11:35.621Z,32.57
2018-04-19T02:14:02.343Z,32.90
2018-04-19T02:16:29.199Z,32.53
2018-04-19T02:18:55.932Z,35.37
2018-04-19T02:21:23.084Z,33.57
2018-04-19T02:23:49.936Z,33.13
2018-04-19T02:26:16.613Z,31.67
2018-04-19T02:28:43.410Z,33.93
2018-04-19T02:31:10.252Z,33.43
2018-04-19T02:33:36.994Z,33.07
2018-04-19T02:36:03.938Z,31.57
2018-04-19T02:38:30.783Z,32.63
2018-04-19T02:40:57.731Z,35.03
2018-04-19T02:43:25.699Z,36.10
2018-04-19T02:45:52.535Z,32.47
2018-04-19T02:48:19.277Z,32.67
2018-04-19T02:50:46.118Z,32.13
2018-04-19T02:53:12.854Z,34.80
2018-04-19T02:55:39.701Z,36.10
2018-04-19T02:58:06.436Z,35.70
2018-04-19T03:00:33.178Z,33.33
2018-04-19T03:03:00.128Z,32.87
2018-04-19T03:05:27.069Z,32.27
2018-04-19T03:07:53.909Z,31.67
2018-04-19T03:10:20.857Z,30.63
2018-04-19T03:12:47.512Z,33.33
2018-04-19T03:15:14.333Z,33.93
2018-04-19T03:17:41.017Z,30.47
2018-04-19T03:20:07.808Z,34.80
2018-04-19T03:22:34.659Z,31.33
2018-04-19T03:25:01.497Z,31.07
2018-04-19T03:27:28.339Z,29.80
2018-04-19T03:29:55.081Z,33.03
2018-04-19T03:32:21.927Z,36.37
2018-04-19T03:34:48.661Z,36.83
2018-04-19T03:37:15.504Z,32.63
2018-04-19T03:39:42.226Z,30.87
2018-04-19T03:42:08.980Z,32.50
2018-04-19T03:44:35.932Z,32.87
2018-04-19T03:47:02.668Z,31.67
2018-04-19T03:49:29.370Z,32.40
2018-04-19T03:51:56.181Z,29.40
2018-04-19T03:54:22.967Z,30.13
2018-04-19T03:56:49.726Z,32.17
2018-04-19T03:59:16.577Z,29.33
2018-04-19T04:01:43.522Z,31.17
2018-04-19T04:04:10.340Z,31.17
2018-04-19T04:06:37.104Z,28.00
2018-04-19T04:09:04.054Z,34.30
2018-04-19T04:11:32.328Z,35.83
2018-04-19T04:13:59.065Z,35.53
2018-04-19T04:16:38.098Z,35.33
2018-04-19T04:19:16.878Z,35.70
2018-04-19T04:21:56.247Z,31.03
2018-04-19T04:24:23.096Z,31.40
2018-04-19T04:26:49.833Z,34.57
2018-04-19T04:29:16.678Z,35.13
2018-04-19T04:31:43.928Z,36.70
2018-04-19T04:34:10.769Z,34.87
2018-04-19T04:36:37.612Z,35.70
2018-04-19T04:39:04.556Z,37.10
2018-04-19T04:41:31.502Z,35.83
2018-04-19T04:43:58.344Z,38.03
2018-04-19T04:46:25.180Z,36.73
2018-04-19T04:48:51.842Z,38.17
2018-04-19T04:51:19.175Z,36.23
2018-04-19T04:53:45.977Z,37.87
2018-04-19T04:56:13.583Z,36.03
2018-04-19T04:58:40.275Z,34.07
2018-04-19T05:01:07.663Z,37.10
2018-04-19T05:03:34.404Z,33.53
2018-04-19T05:06:01.255Z,35.07
2018-04-19T05:08:28.098Z,32.63
2018-04-19T05:10:55.247Z,36.03
2018-04-19T05:13:22.090Z,37.17
2018-04-19T05:15:48.746Z,37.50
2018-04-19T05:18:16.243Z,40.97
2018-04-19T05:20:43.944Z,38.20
2018-04-19T05:23:10.607Z,39.10
2018-04-19T05:25:37.431Z,41.90
2018-04-19T05:28:04.273Z,40.70
2018-04-19T05:30:40.415Z,39.60
2018-04-19T05:33:07.766Z,44.70
2018-04-19T05:35:35.256Z,42.00
2018-04-19T05:38:01.956Z,46.23
2018-04-19T05:40:28.686Z,40.27
2018-04-19T05:42:55.909Z,41.27
2018-04-19T05:45:23.432Z,40.20
2018-04-19T05:47:50.276Z,36.00
2018-04-19T05:50:17.110Z,36.03
2018-04-19T05:52:44.056Z,35.27
2018-04-19T05:55:10.902Z,34.27
2018-04-19T05:57:37.717Z,34.23
2018-04-19T06:00:04.661Z,30.87
2018-04-19T06:02:32.247Z,30.07
2018-04-19T06:04:59.085Z,31.23
2018-04-19T06:07:25.934Z,28.80
2018-04-19T06:09:52.605Z,28.83
2018-04-19T06:12:19.245Z,27.07
2018-04-19T06:14:46.841Z,27.63
2018-04-19T06:17:13.810Z,26.53
2018-04-19T06:19:40.802Z,27.23
2018-04-19T06:22:07.703Z,28.37
2018-04-19T06:24:34.414Z,25.33
2018-04-19T06:27:01.287Z,26.83
2018-04-19T06:29:27.961Z,28.30
2018-04-19T06:31:55.280Z,25.37
2018-04-19T06:34:22.121Z,25.73
2018-04-19T06:36:49.068Z,25.60
2018-04-19T06:39:16.009Z,25.87
2018-04-19T06:41:42.650Z,24.23
2018-04-19T06:44:09.397Z,24.87
2018-04-19T06:46:36.224Z,24.37
2018-04-19T06:49:03.375Z,23.73
2018-04-19T06:51:30.221Z,24.47
2018-04-19T06:53:56.956Z,24.63
2018-04-19T06:56:23.805Z,22.40
2018-04-19T06:58:50.472Z,22.30
2018-04-19T07:01:17.387Z,23.03
2018-04-19T07:03:44.116Z,22.37
2018-04-19T07:06:10.774Z,21.20
2018-04-19T07:08:37.708Z,21.73
2018-04-19T07:11:04.549Z,21.00
2018-04-19T07:13:31.292Z,20.50
2018-04-19T07:15:58.439Z,20.97
2018-04-19T07:18:25.182Z,20.33
2018-04-19T07:20:52.019Z,21.27
2018-04-19T07:23:18.859Z,19.83
2018-04-19T07:25:45.738Z,19.10
2018-04-19T07:28:12.549Z,19.57
2018-04-19T07:30:39.595Z,19.93
2018-04-19T07:33:06.268Z,19.93
2018-04-19T07:35:32.963Z,19.97
2018-04-19T07:37:59.820Z,18.43
2018-04-19T07:40:26.555Z,19.07
2018-04-19T07:42:53.397Z,19.50
2018-04-19T07:45:20.071Z,19.53
2018-04-19T07:47:46.877Z,18.97
2018-04-19T07:50:14.121Z,19.73
2018-04-19T07:52:40.864Z,19.97
2018-04-19T07:55:07.609Z,19.63
2018-04-19T07:57:34.554Z,19.60
2018-04-19T08:00:01.289Z,19.13
2018-04-19T08:02:28.013Z,16.90
2018-04-19T08:04:54.769Z,15.27
2018-04-19T08:07:21.471Z,15.10
2018-04-19T08:09:49.405Z,13.43
2018-04-19T08:12:16.117Z,12.20
2018-04-19T08:14:42.857Z,10.67
2018-04-19T08:17:09.804Z,11.83
2018-04-19T08:19:36.546Z,10.97
2018-04-19T08:22:03.386Z,11.83
2018-04-19T08:24:30.359Z,11.60
2018-04-19T08:26:59.013Z,11.00
2018-04-19T08:29:26.019Z,11.23
2018-04-19T08:31:52.804Z,10.23
2018-04-19T08:34:19.748Z,12.10
2018-04-19T08:36:46.488Z,11.20
2018-04-19T08:39:13.331Z,12.00
2018-04-19T08:41:40.275Z,12.53
2018-04-19T08:44:07.016Z,12.57
2018-04-19T08:46:33.744Z,11.90
2018-04-19T08:49:00.420Z,12.57
2018-04-19T08:51:27.108Z,13.60
2018-04-19T08:53:53.827Z,14.70
2018-04-19T08:56:21.254Z,12.90
2018-04-19T08:58:48.069Z,13.33
2018-04-19T09:01:15.015Z,13.73
2018-04-19T09:03:41.683Z,13.27
2018-04-19T09:06:08.409Z,13.47
2018-04-19T09:08:35.127Z,12.27
2018-04-19T09:11:01.871Z,11.77
2018-04-19T09:13:28.620Z,11.37
2018-04-19T09:15:55.355Z,11.70
2018-04-19T09:18:22.189Z,11.20
2018-04-19T09:20:48.929Z,11.80
2018-04-19T09:23:15.877Z,10.33
2018-04-19T09:25:42.721Z,12.53
2018-04-19T09:28:09.665Z,13.03
2018-04-19T09:30:36.512Z,13.43
2018-04-19T09:33:03.188Z,12.93
2018-04-19T09:35:31.240Z,12.00
2018-04-19T09:37:58.163Z,11.30
2018-04-19T09:40:24.900Z,11.70
2018-04-19T09:42:51.637Z,12.23
2018-04-19T09:45:18.479Z,10.47
2018-04-19T09:47:45.255Z,10.30
2018-04-19T09:50:12.170Z,10.57
2018-04-19T09:52:39.009Z,10.37
2018-04-19T09:55:05.694Z,10.57
2018-04-19T09:57:32.590Z,10.10
2018-04-19T10:00:00.950Z,10.03
2018-04-19T10:02:28.739Z,10.20
2018-04-19T10:05:01.517Z,9.57
2018-04-19T10:07:28.330Z,9.87
2018-04-19T10:09:55.790Z,9.03
2018-04-19T10:12:22.526Z,10.37
2018-04-19T10:14:49.213Z,10.13
2018-04-19T10:17:15.914Z,9.73
2018-04-19T10:19:42.757Z,9.83
2018-04-19T10:22:10.183Z,10.60
2018-04-19T10:24:37.895Z,9.40
2018-04-19T10:27:04.687Z,9.60
2018-04-19T10:29:31.431Z,9.77
2018-04-19T10:31:58.874Z,9.57
2018-04-19T10:34:25.590Z,8.37
2018-04-19T10:36:52.771Z,9.20
2018-04-19T10:39:20.229Z,8.10
2018-04-19T10:41:46.903Z,7.47
2018-04-19T10:44:13.656Z,7.37
2018-04-19T10:46:40.380Z,7.10
2018-04-19T10:49:07.600Z,7.97
2018-04-19T10:51:34.327Z,8.03
2018-04-19T10:54:01.039Z,7.33
2018-04-19T10:56:28.209Z,7.40
2018-04-19T10:58:55.119Z,7.47
2018-04-19T11:01:21.814Z,6.40
2018-04-19T11:03:48.699Z,7.17
2018-04-19T11:06:15.543Z,9.23
2018-04-19T11:08:42.797Z,9.43
2018-04-19T11:11:09.533Z,9.90
2018-04-19T11:13:36.276Z,10.00
2018-04-19T11:16:03.424Z,10.17
2018-04-19T11:18:30.094Z,10.83
2018-04-19T11:20:56.904Z,13.83
2018-04-19T11:23:23.747Z,12.17
2018-04-19T11:25:50.589Z,11.23
2018-04-19T11:28:17.427Z,11.87
2018-04-19T11:30:44.162Z,12.33
2018-04-19T11:33:10.907Z,13.80
2018-04-19T11:35:37.646Z,13.70
2018-04-19T11:38:04.493Z,12.10
2018-04-19T11:40:31.335Z,12.20
2018-04-19T11:42:58.177Z,13.37
2018-04-19T11:45:25.020Z,11.70
2018-04-19T11:47:51.859Z,12.07
2018-04-19T11:50:19.031Z,12.43
2018-04-19T11:52:46.449Z,13.30
2018-04-19T11:55:13.209Z,13.70
2018-04-19T11:57:40.055Z,13.17
2018-04-19T12:00:06.898Z,11.97
2018-04-19T12:02:33.737Z,13.23
2018-04-19T12:05:00.697Z,11.97
2018-04-19T12:07:27.528Z,12.60
2018-04-19T12:09:54.471Z,11.90
2018-04-19T12:12:21.314Z,11.93
2018-04-19T12:14:48.052Z,11.63
2018-04-19T12:17:14.742Z,9.83
2018-04-19T12:19:41.532Z,10.70
2018-04-19T12:22:08.271Z,10.27
2018-04-19T12:24:35.037Z,12.40
2018-04-19T12:27:01.854Z,10.10
2018-04-19T12:29:28.695Z,10.23
2018-04-19T12:31:55.640Z,10.83
2018-04-19T12:34:22.375Z,11.50
2018-04-19T12:36:49.225Z,12.67
2018-04-19T12:39:16.167Z,13.07
2018-04-19T12:41:43.014Z,13.10
2018-04-19T12:44:09.745Z,12.20
2018-04-19T12:46:36.480Z,11.30
2018-04-19T12:49:03.232Z,11.30
2018-04-19T12:51:29.942Z,12.10
2018-04-19T12:53:56.706Z,14.20
2018-04-19T12:56:23.450Z,15.23
2018-04-19T12:58:50.293Z,14.90
2018-04-19T13:01:16.943Z,15.43
2018-04-19T13:03:43.771Z,12.93
2018-04-19T13:06:10.716Z,14.27
2018-04-19T13:08:37.366Z,12.83
2018-04-19T13:11:04.201Z,13.93
2018-04-19T13:13:31.038Z,13.77
2018-04-19T13:15:57.758Z,15.07
2018-04-19T13:18:24.518Z,14.37
2018-04-19T13:20:51.368Z,14.13
2018-04-19T13:23:18.305Z,13.33
2018-04-19T13:25:45.154Z,12.90
2018-04-19T13:28:12.095Z,11.63
2018-04-19T13:30:39.038Z,12.53
2018-04-19T13:33:05.773Z,12.93
2018-04-19T13:35:32.824Z,12.90
2018-04-19T13:37:59.625Z,12.17
2018-04-19T13:40:27.224Z,11.20
2018-04-19T13:42:53.965Z,11.67
2018-04-19T13:45:21.014Z,10.97
2018-04-19T13:47:47.754Z,12.07
2018-04-19T13:50:14.596Z,10.07
2018-04-19T13:52:41.332Z,11.00
2018-04-19T13:55:07.975Z,9.90
2018-04-19T13:57:35.127Z,9.27
2018-04-19T14:00:01.866Z,9.77
2018-04-19T14:02:30.427Z,8.83
2018-04-19T14:04:57.996Z,8.83
2018-04-19T14:07:25.257Z,9.73
2018-04-19T14:09:52.197Z,8.90
2018-04-19T14:12:19.048Z,8.90
2018-04-19T14:14:45.779Z,9.10
2018-04-19T14:17:12.626Z,9.83
2018-04-19T14:19:39.469Z,10.57
2018-04-19T14:22:06.204Z,9.97
2018-04-19T14:24:33.051Z,9.83
2018-04-19T14:26:59.994Z,8.90
2018-04-19T14:29:26.661Z,9.83
2018-04-19T14:31:53.426Z,10.73
2018-04-19T14:40:14.619Z,10.03
2018-04-19T14:42:41.328Z,9.67
2018-04-19T14:45:08.102Z,10.03
2018-04-19T14:47:34.844Z,9.20
2018-04-19T14:50:01.788Z,8.93
2018-04-19T14:52:28.626Z,9.43
2018-04-19T14:54:55.441Z,9.77
2018-04-19T14:57:22.928Z,8.53
2018-04-19T14:59:49.570Z,8.30
2018-04-19T15:02:16.506Z,8.13
2018-04-19T15:04:43.251Z,8.40
2018-04-19T15:07:09.989Z,8.53
2018-04-19T15:09:36.832Z,7.70
2018-04-19T15:12:03.576Z,7.40
2018-04-19T15:14:30.628Z,8.87
2018-04-19T15:16:57.253Z,8.20
2018-04-19T15:19:23.996Z,8.63
2018-04-19T15:21:51.216Z,7.73
2018-04-19T15:24:18.601Z,7.33
2018-04-19T15:26:45.653Z,7.77
2018-04-19T15:29:12.352Z,8.40
2018-04-19T15:31:39.957Z,8.40
2018-04-19T15:34:07.369Z,8.43
2018-04-19T15:36:34.146Z,7.87
2018-04-19T15:39:01.295Z,8.63
2018-04-19T15:41:27.950Z,10.47
2018-04-19T15:43:54.779Z,10.23
2018-04-19T15:46:21.482Z,10.40
2018-04-19T15:48:48.251Z,10.37
2018-04-19T15:51:14.900Z,10.47
2018-04-19T15:53:41.548Z,10.40
2018-04-19T15:56:08.372Z,10.27
2018-04-19T15:58:35.214Z,10.80
2018-04-19T16:01:02.059Z,11.50
2018-04-19T16:03:28.900Z,13.00
2018-04-19T16:05:55.545Z,13.57
2018-04-19T16:08:22.157Z,12.93
2018-04-19T16:10:48.907Z,13.03
2018-04-19T16:13:15.655Z,13.87
2018-04-19T16:15:42.598Z,13.83
2018-04-19T16:18:09.757Z,14.47
2018-04-19T16:20:36.590Z,14.70
2018-04-19T16:23:03.434Z,14.53
2018-04-19T16:25:30.380Z,15.53
2018-04-19T16:27:57.114Z,15.13
2018-04-19T16:30:23.961Z,16.27
2018-04-19T16:32:50.620Z,15.03
2018-04-19T16:35:17.316Z,15.40
2018-04-19T16:37:44.284Z,15.87
2018-04-19T16:40:11.122Z,14.73
2018-04-19T16:42:37.805Z,16.13
2018-04-19T16:45:04.604Z,15.20
2018-04-19T16:47:31.349Z,14.13
2018-04-19T16:49:58.040Z,13.23
2018-04-19T16:52:24.711Z,14.10
2018-04-19T16:54:51.574Z,14.20
2018-04-19T16:57:18.268Z,13.10
2018-04-19T16:59:46.169Z,13.73
2018-04-19T17:02:13.007Z,14.60
2018-04-19T17:04:39.874Z,15.17
2018-04-19T17:07:06.692Z,13.60
2018-04-19T17:09:33.742Z,14.37
2018-04-19T17:12:00.417Z,15.30
2018-04-19T17:14:28.862Z,15.03
2018-04-19T17:16:55.673Z,15.20
2018-04-19T17:19:23.267Z,15.07
2018-04-19T17:21:50.025Z,15.10
2018-04-19T17:24:19.787Z,14.63
2018-04-19T17:26:46.866Z,14.57
2018-04-19T17:29:13.528Z,14.97
2018-04-19T17:31:40.446Z,13.07
2018-04-19T17:34:07.100Z,12.57
2018-04-19T17:36:34.443Z,12.93
2018-04-19T17:39:01.078Z,13.03
2018-04-19T17:41:27.946Z,12.37
2018-04-19T17:43:54.729Z,11.73
2018-04-19T17:46:22.101Z,11.30
2018-04-19T17:48:48.951Z,11.57
2018-04-19T17:51:15.657Z,10.63
2018-04-19T17:53:43.265Z,11.20
2018-04-19T17:56:10.321Z,10.37
2018-04-19T17:58:37.000Z,11.20
2018-04-19T18:01:04.598Z,11.10
2018-04-19T18:03:31.260Z,11.43
2018-04-19T18:05:58.385Z,11.57
2018-04-19T18:08:25.047Z,11.33
2018-04-19T18:10:51.866Z,12.23
2018-04-19T18:13:18.537Z,12.60
2018-04-19T18:15:45.448Z,13.43
2018-04-19T18:18:12.699Z,13.67
2018-04-19T18:20:39.439Z,13.57
2018-04-19T18:23:06.283Z,13.13
2018-04-19T18:25:32.960Z,13.13
2018-04-19T18:27:59.865Z,12.57
2018-04-19T18:30:26.572Z,13.87
2018-04-19T18:32:53.936Z,13.57
2018-04-19T18:35:21.485Z,13.73
2018-04-19T18:37:48.093Z,15.10
2018-04-19T18:40:14.725Z,13.53
2018-04-19T18:42:41.837Z,14.87
2018-04-19T18:45:08.547Z,14.33
2018-04-19T18:47:35.917Z,14.93
2018-04-19T18:50:02.879Z,15.50
2018-04-19T18:52:29.622Z,14.93
2018-04-19T18:54:56.505Z,16.30
2018-04-19T18:57:23.203Z,16.07
2018-04-19T18:59:49.943Z,15.43
2018-04-19T19:02:16.666Z,15.37
2018-04-19T19:04:43.386Z,16.47
2018-04-19T19:07:10.875Z,16.77
2018-04-19T19:09:37.616Z,15.80
2018-04-19T19:12:04.461Z,17.40
2018-04-19T19:14:32.969Z,16.43
2018-04-19T19:16:59.785Z,16.87
2018-04-19T19:19:39.632Z,16.87
2018-04-19T19:22:06.372Z,17.73
2018-04-19T19:24:33.081Z,17.00
2018-04-19T19:27:00.565Z,17.40
2018-04-19T19:29:27.304Z,17.97
2018-04-19T19:31:53.989Z,18.47
2018-04-19T19:34:20.682Z,18.43
2018-04-19T19:36:47.431Z,17.33
2018-04-19T19:39:14.065Z,17.13
2018-04-19T19:41:40.793Z,17.00
2018-04-19T19:44:07.543Z,18.40
2018-04-19T19:46:34.385Z,17.50
2018-04-19T19:49:01.227Z,18.67
2018-04-19T19:51:27.889Z,18.00
2018-04-19T19:53:54.570Z,20.33
2018-04-19T19:56:22.053Z,18.33
2018-04-19T19:58:49.415Z,19.00
2018-04-19T20:01:16.065Z,20.40
2018-04-19T20:03:42.790Z,19.87
2018-04-19T20:06:09.497Z,20.27
2018-04-19T20:08:36.380Z,20.03
2018-04-19T20:11:03.116Z,20.30
2018-04-19T20:13:29.833Z,18.87
2018-04-19T20:15:57.231Z,20.90
2018-04-19T20:18:23.955Z,20.87
2018-04-19T20:20:50.624Z,20.53
2018-04-19T20:23:17.430Z,20.93
2018-04-19T20:25:44.058Z,20.90
2018-04-19T20:28:10.807Z,21.40
2018-04-19T20:30:37.547Z,21.60
2018-04-19T20:33:04.201Z,20.80
2018-04-19T20:35:30.924Z,22.03
2018-04-19T20:37:57.766Z,21.97
2018-04-19T20:40:24.609Z,21.73
2018-04-19T20:42:51.452Z,21.83
2018-04-19T20:45:18.294Z,21.10
2018-04-19T20:47:45.029Z,21.70
2018-04-19T20:50:11.877Z,21.00
2018-04-19T20:52:38.558Z,22.53
2018-04-19T20:55:05.368Z,21.43
2018-04-19T20:57:32.068Z,20.90
2018-04-19T20:59:58.835Z,22.23
2018-04-19T21:02:25.637Z,21.33
2018-04-19T21:04:53.138Z,22.20
2018-04-19T21:07:19.877Z,21.43
2018-04-19T21:09:46.756Z,23.20
2018-04-19T21:12:13.561Z,22.23
2018-04-19T21:14:40.300Z,22.50
2018-04-19T21:17:07.547Z,22.83
2018-04-19T21:19:34.253Z,22.50
2018-04-19T21:22:01.826Z,23.03
2018-04-19T21:24:29.277Z,22.43
2018-04-19T21:26:56.765Z,21.70
2018-04-19T21:29:23.421Z,23.37
2018-04-19T21:31:50.142Z,23.83
2018-04-19T21:34:16.981Z,24.33
2018-04-19T21:36:43.716Z,23.87
2018-04-19T21:39:10.370Z,24.83
2018-04-19T21:41:37.921Z,23.67
2018-04-19T21:44:04.578Z,24.63
2018-04-19T21:46:31.400Z,24.17
2018-04-19T21:48:58.242Z,23.93
2018-04-19T21:51:24.911Z,23.17
2018-04-19T21:53:51.532Z,23.87
2018-04-19T21:56:18.360Z,23.90
2018-04-19T21:58:45.017Z,23.63
2018-04-19T22:01:11.738Z,24.40
2018-04-19T22:03:38.684Z,24.83
2018-04-19T22:06:05.423Z,25.10
2018-04-19T22:08:32.084Z,25.03
2018-04-19T22:10:58.721Z,24.47
2018-04-19T22:13:25.437Z,24.80
2018-04-19T22:15:52.152Z,24.90
2018-04-19T22:18:19.722Z,25.83
2018-04-19T22:20:46.404Z,24.53
2018-04-19T22:23:13.115Z,24.47
2018-04-19T22:25:39.792Z,24.67
2018-04-19T22:28:06.492Z,23.30
2018-04-19T22:30:33.301Z,23.80
2018-04-19T22:33:00.177Z,25.20
2018-04-19T22:35:26.915Z,24.67
2018-04-19T22:37:53.656Z,24.17
2018-04-19T22:40:20.601Z,24.60
2018-04-19T22:42:47.446Z,23.63
2018-04-19T22:45:14.179Z,23.67
2018-04-19T22:47:40.924Z,25.70
2018-04-19T22:50:07.663Z,23.67
2018-04-19T22:52:34.320Z,23.70
2018-04-19T22:55:00.968Z,23.27
2018-04-19T22:57:28.396Z,25.10
2018-04-19T22:59:55.244Z,23.87
2018-04-19T23:02:21.977Z,24.00
2018-04-19T23:04:48.662Z,22.93
2018-04-19T23:07:15.337Z,23.23
2018-04-19T23:09:42.914Z,22.87
2018-04-19T23:12:09.757Z,22.20
2018-04-19T23:14:36.981Z,22.47
2018-04-19T23:17:03.756Z,22.90
2018-04-19T23:19:30.590Z,22.17
2018-04-19T23:21:57.531Z,21.83
2018-04-19T23:24:24.192Z,22.27
2018-04-19T23:26:51.015Z,22.10
2018-04-19T23:29:17.829Z,22.07
2018-04-19T23:31:45.724Z,22.33
2018-04-19T23:34:12.565Z,22.50
2018-04-19T23:36:39.518Z,22.03
2018-04-19T23:39:06.352Z,22.43
2018-04-19T23:41:33.600Z,22.97
2018-04-19T23:44:00.270Z,23.07
2018-04-19T23:46:26.888Z,20.90
2018-04-19T23:48:53.722Z,22.53
2018-04-19T23:51:20.462Z,23.27
2018-04-19T23:53:47.406Z,22.57
2018-04-19T23:56:14.146Z,23.73
2018-04-19T23:58:41.245Z,22.60
